KBED/BED METAR and TAF weather

Enter ICAO airport designator
Station Type Date Time Source
KBED METAR 2020/10/20 17:51 UTC NOAA

KBED 201751Z VRB04KT 10SM OVC019 19/15 A3022 RMK AO2 SLP244 T01940150 10200 20089 58013


Station Type Date Time Source
KBED Decoded METAR 2020/10/20 17:51 UTC NOAA

BEDFORD HANSCOM FIELD, MA, United States (KBED) 42-28N 071-18W 50M
Oct 20, 2020 - 01:51 PM EDT / 2020.10.20 1751 UTC
Wind: Variable at 5 MPH (4 KT):0
Visibility: 10 mile(s):0
Sky conditions: overcast
Temperature: 66.9 F (19.4 C)
Dew Point: 59.0 F (15.0 C)
Relative Humidity: 75%
Pressure (altimeter): 30.22 in. Hg (1023 hPa)
Pressure tendency: 0.04 inches (1.3 hPa) lower than three hours ago
ob: KBED 201751Z VRB04KT 10SM OVC019 19/15 A3022 RMK AO2 SLP244 T01940150 10200 20089 58013
cycle: 18

Station Type Date Time Source
KBED TAF 2020/10/20 18:42 UTC NOAA

TAF KBED 201741Z 2018/2118 20008KT P6SM BKN015
FM210200 00000KT 1 1/2SM BR OVC025
FM210400 00000KT 1/4SM FG OVC015
FM210900 00000KT 3/4SM BR OVC003

Example: see airport list